sensor_id;sensor_type;location;lat;lon;timestamp;pressure;altitude;pressure_sealevel;temperature;humidity
24390;BME280;12510;56.468;-3.004;2023-02-18T00:01:27;100271.38;;;16.31;71.78
24390;BME280;12510;56.468;-3.004;2023-02-18T00:03:56;100265.41;;;16.44;72.28
24390;BME280;12510;56.468;-3.004;2023-02-18T00:06:28;100260.81;;;16.53;72.75
24390;BME280;12510;56.468;-3.004;2023-02-18T00:08:55;100259.41;;;15.82;78.14
24390;BME280;12510;56.468;-3.004;2023-02-18T00:11:24;100255.00;;;16.28;76.92
24390;BME280;12510;56.468;-3.004;2023-02-18T00:13:52;100261.09;;;16.43;76.70
24390;BME280;12510;56.468;-3.004;2023-02-18T00:16:18;100246.50;;;16.84;73.37
24390;BME280;12510;56.468;-3.004;2023-02-18T00:18:45;100239.22;;;15.73;78.43
24390;BME280;12510;56.468;-3.004;2023-02-18T00:21:11;100239.13;;;16.34;76.15
24390;BME280;12510;56.468;-3.004;2023-02-18T00:23:38;100211.44;;;15.84;77.65
24390;BME280;12510;56.468;-3.004;2023-02-18T00:26:07;100208.97;;;16.27;74.86
24390;BME280;12510;56.468;-3.004;2023-02-18T00:28:34;100211.47;;;16.44;74.00
24390;BME280;12510;56.468;-3.004;2023-02-18T00:31:09;100201.81;;;16.57;72.53
24390;BME280;12510;56.468;-3.004;2023-02-18T00:33:36;100186.38;;;16.68;72.01
24390;BME280;12510;56.468;-3.004;2023-02-18T00:36:05;100177.41;;;17.05;70.75
24390;BME280;12510;56.468;-3.004;2023-02-18T00:38:32;100188.00;;;16.32;72.77
24390;BME280;12510;56.468;-3.004;2023-02-18T00:40:59;100178.66;;;16.06;73.39
24390;BME280;12510;56.468;-3.004;2023-02-18T00:43:25;100172.44;;;16.29;74.51
24390;BME280;12510;56.468;-3.004;2023-02-18T00:45:52;100170.28;;;16.54;71.22
24390;BME280;12510;56.468;-3.004;2023-02-18T00:48:19;100157.44;;;15.53;77.88
24390;BME280;12510;56.468;-3.004;2023-02-18T00:50:46;100147.75;;;16.35;74.07
24390;BME280;12510;56.468;-3.004;2023-02-18T00:53:12;100132.25;;;15.87;74.97
24390;BME280;12510;56.468;-3.004;2023-02-18T00:55:41;100128.66;;;15.95;75.53
24390;BME280;12510;56.468;-3.004;2023-02-18T00:58:08;100130.41;;;15.35;78.76
24390;BME280;12510;56.468;-3.004;2023-02-18T01:00:35;100114.19;;;15.83;77.48
24390;BME280;12510;56.468;-3.004;2023-02-18T01:03:01;100105.06;;;15.85;77.61
24390;BME280;12510;56.468;-3.004;2023-02-18T01:05:28;100101.91;;;16.48;74.53
24390;BME280;12510;56.468;-3.004;2023-02-18T01:07:54;100092.38;;;17.47;70.30
24390;BME280;12510;56.468;-3.004;2023-02-18T01:10:21;100097.25;;;15.99;73.43
24390;BME280;12510;56.468;-3.004;2023-02-18T01:12:48;100103.31;;;16.07;75.26
24390;BME280;12510;56.468;-3.004;2023-02-18T01:15:16;100107.88;;;15.69;76.88
24390;BME280;12510;56.468;-3.004;2023-02-18T01:17:43;100112.56;;;14.67;83.24
24390;BME280;12510;56.468;-3.004;2023-02-18T01:20:11;100117.75;;;15.07;82.08
24390;BME280;12510;56.468;-3.004;2023-02-18T01:22:39;100120.34;;;15.30;82.45
24390;BME280;12510;56.468;-3.004;2023-02-18T01:25:08;100107.78;;;15.62;79.26
24390;BME280;12510;56.468;-3.004;2023-02-18T01:27:34;100094.28;;;15.34;78.83
24390;BME280;12510;56.468;-3.004;2023-02-18T01:30:03;100075.72;;;15.34;79.85
24390;BME280;12510;56.468;-3.004;2023-02-18T01:32:29;100078.97;;;15.89;76.35
24390;BME280;12510;56.468;-3.004;2023-02-18T01:34:56;100083.81;;;15.85;76.20
24390;BME280;12510;56.468;-3.004;2023-02-18T01:37:22;100079.59;;;15.91;75.58
24390;BME280;12510;56.468;-3.004;2023-02-18T01:39:50;100066.78;;;15.65;76.98
24390;BME280;12510;56.468;-3.004;2023-02-18T01:42:19;100043.41;;;16.05;75.41
24390;BME280;12510;56.468;-3.004;2023-02-18T01:44:47;100037.81;;;16.36;74.42
24390;BME280;12510;56.468;-3.004;2023-02-18T01:47:15;100031.50;;;15.71;76.12
24390;BME280;12510;56.468;-3.004;2023-02-18T01:49:44;100015.16;;;15.67;75.68
24390;BME280;12510;56.468;-3.004;2023-02-18T01:52:16;100007.25;;;15.59;77.81
24390;BME280;12510;56.468;-3.004;2023-02-18T01:54:46;100058.50;;;14.45;100.00
24390;BME280;12510;56.468;-3.004;2023-02-18T01:57:21;100039.97;;;15.59;100.00
24390;BME280;12510;56.468;-3.004;2023-02-18T01:59:53;99999.41;;;16.61;100.00
24390;BME280;12510;56.468;-3.004;2023-02-18T02:02:24;99984.06;;;15.98;89.74
24390;BME280;12510;56.468;-3.004;2023-02-18T02:04:53;99989.97;;;15.63;90.25
24390;BME280;12510;56.468;-3.004;2023-02-18T02:07:22;99980.38;;;15.32;90.88
24390;BME280;12510;56.468;-3.004;2023-02-18T02:09:51;99963.19;;;14.83;90.45
24390;BME280;12510;56.468;-3.004;2023-02-18T02:35:05;99870.75;;;18.14;68.42
24390;BME280;12510;56.468;-3.004;2023-02-18T02:38:03;99875.50;;;14.70;81.29
24390;BME280;12510;56.468;-3.004;2023-02-18T02:40:46;99872.84;;;15.66;81.00
24390;BME280;12510;56.468;-3.004;2023-02-18T02:43:41;99873.31;;;16.41;77.50
24390;BME280;12510;56.468;-3.004;2023-02-18T02:46:20;99852.59;;;16.58;75.82
24390;BME280;12510;56.468;-3.004;2023-02-18T02:49:02;99826.16;;;16.85;71.79
24390;BME280;12510;56.468;-3.004;2023-02-18T02:54:26;99811.41;;;16.19;73.26
24390;BME280;12510;56.468;-3.004;2023-02-18T02:57:08;99827.84;;;15.58;79.59
24390;BME280;12510;56.468;-3.004;2023-02-18T02:59:40;99828.22;;;14.58;89.31
24390;BME280;12510;56.468;-3.004;2023-02-18T03:05:30;99801.03;;;18.50;67.85
24390;BME280;12510;56.468;-3.004;2023-02-18T03:24:45;99786.28;;;17.54;68.57
24390;BME280;12510;56.468;-3.004;2023-02-18T03:27:22;99780.09;;;17.40;79.29
24390;BME280;12510;56.468;-3.004;2023-02-18T03:29:54;99770.31;;;17.81;69.49
24390;BME280;12510;56.468;-3.004;2023-02-18T03:32:23;99771.34;;;17.80;68.64
24390;BME280;12510;56.468;-3.004;2023-02-18T03:34:54;99776.66;;;17.53;68.44
24390;BME280;12510;56.468;-3.004;2023-02-18T03:37:23;99773.59;;;18.16;66.93
24390;BME280;12510;56.468;-3.004;2023-02-18T03:39:54;99768.28;;;18.09;65.90
24390;BME280;12510;56.468;-3.004;2023-02-18T03:42:26;99765.78;;;17.48;68.39
24390;BME280;12510;56.468;-3.004;2023-02-18T03:44:53;99761.91;;;17.57;68.64
24390;BME280;12510;56.468;-3.004;2023-02-18T03:47:22;99764.19;;;18.00;67.39
24390;BME280;12510;56.468;-3.004;2023-02-18T03:49:49;99753.34;;;18.02;66.62
24390;BME280;12510;56.468;-3.004;2023-02-18T03:52:16;99759.13;;;17.03;69.68
24390;BME280;12510;56.468;-3.004;2023-02-18T03:54:42;99756.56;;;16.33;74.71
24390;BME280;12510;56.468;-3.004;2023-02-18T03:57:09;99765.19;;;16.42;75.31
24390;BME280;12510;56.468;-3.004;2023-02-18T03:59:35;99765.63;;;16.46;75.98
24390;BME280;12510;56.468;-3.004;2023-02-18T04:02:02;99757.50;;;16.19;76.32
24390;BME280;12510;56.468;-3.004;2023-02-18T04:04:28;99744.31;;;16.81;74.71
24390;BME280;12510;56.468;-3.004;2023-02-18T04:06:55;99732.19;;;17.33;71.06
24390;BME280;12510;56.468;-3.004;2023-02-18T04:09:21;99724.22;;;17.80;68.71
24390;BME280;12510;56.468;-3.004;2023-02-18T04:11:48;99731.41;;;17.80;67.73
24390;BME280;12510;56.468;-3.004;2023-02-18T04:14:14;99739.19;;;17.81;66.50
24390;BME280;12510;56.468;-3.004;2023-02-18T04:16:40;99728.19;;;19.66;57.97
24390;BME280;12510;56.468;-3.004;2023-02-18T04:19:07;99738.16;;;17.69;67.81
24390;BME280;12510;56.468;-3.004;2023-02-18T04:21:33;99739.97;;;17.28;69.56
24390;BME280;12510;56.468;-3.004;2023-02-18T04:24:00;99764.56;;;17.50;68.87
24390;BME280;12510;56.468;-3.004;2023-02-18T04:26:27;99764.28;;;19.11;63.49
24390;BME280;12510;56.468;-3.004;2023-02-18T04:28:53;99745.22;;;19.39;60.50
24390;BME280;12510;56.468;-3.004;2023-02-18T04:31:20;99743.41;;;16.60;71.72
24390;BME280;12510;56.468;-3.004;2023-02-18T04:33:46;99754.34;;;17.54;66.85
24390;BME280;12510;56.468;-3.004;2023-02-18T04:36:12;99747.81;;;20.96;54.50
24390;BME280;12510;56.468;-3.004;2023-02-18T04:38:39;99740.66;;;21.51;51.10
24390;BME280;12510;56.468;-3.004;2023-02-18T04:41:07;99749.56;;;20.35;53.53
24390;BME280;12510;56.468;-3.004;2023-02-18T04:43:33;99746.03;;;19.08;57.59
24390;BME280;12510;56.468;-3.004;2023-02-18T04:46:00;99737.94;;;18.83;55.74
24390;BME280;12510;56.468;-3.004;2023-02-18T04:48:26;99747.03;;;19.14;57.06
24390;BME280;12510;56.468;-3.004;2023-02-18T04:50:53;99730.13;;;18.29;56.43
24390;BME280;12510;56.468;-3.004;2023-02-18T04:53:19;99726.25;;;19.54;55.46
24390;BME280;12510;56.468;-3.004;2023-02-18T04:55:50;99732.41;;;19.23;55.20
24390;BME280;12510;56.468;-3.004;2023-02-18T04:58:17;99731.88;;;19.65;53.40
24390;BME280;12510;56.468;-3.004;2023-02-18T05:00:44;99736.19;;;19.66;52.55
24390;BME280;12510;56.468;-3.004;2023-02-18T05:03:10;99739.13;;;19.57;53.37
24390;BME280;12510;56.468;-3.004;2023-02-18T05:05:37;99739.78;;;18.89;54.71
24390;BME280;12510;56.468;-3.004;2023-02-18T05:08:03;99770.53;;;18.13;57.69
24390;BME280;12510;56.468;-3.004;2023-02-18T05:10:30;99758.25;;;18.90;54.99
24390;BME280;12510;56.468;-3.004;2023-02-18T05:12:56;99780.56;;;18.24;57.50
24390;BME280;12510;56.468;-3.004;2023-02-18T05:15:23;99773.78;;;17.48;57.88
24390;BME280;12510;56.468;-3.004;2023-02-18T05:17:49;99782.78;;;17.67;59.87
24390;BME280;12510;56.468;-3.004;2023-02-18T05:20:16;99791.19;;;17.50;59.42
24390;BME280;12510;56.468;-3.004;2023-02-18T05:22:42;99799.03;;;17.92;58.74
24390;BME280;12510;56.468;-3.004;2023-02-18T05:25:09;99808.44;;;16.99;59.35
24390;BME280;12510;56.468;-3.004;2023-02-18T05:27:35;99812.25;;;17.52;59.31
24390;BME280;12510;56.468;-3.004;2023-02-18T05:30:02;99804.72;;;17.55;57.85
24390;BME280;12510;56.468;-3.004;2023-02-18T05:32:29;99803.31;;;18.26;56.40
24390;BME280;12510;56.468;-3.004;2023-02-18T05:34:55;99811.06;;;17.61;57.03
24390;BME280;12510;56.468;-3.004;2023-02-18T05:37:21;99813.94;;;17.86;56.43
24390;BME280;12510;56.468;-3.004;2023-02-18T05:39:48;99803.94;;;18.35;54.84
24390;BME280;12510;56.468;-3.004;2023-02-18T05:42:14;99814.63;;;18.02;55.42
24390;BME280;12510;56.468;-3.004;2023-02-18T05:44:41;99819.50;;;18.38;55.03
24390;BME280;12510;56.468;-3.004;2023-02-18T05:47:10;99829.00;;;16.84;57.89
24390;BME280;12510;56.468;-3.004;2023-02-18T05:49:38;99835.34;;;16.48;61.61
24390;BME280;12510;56.468;-3.004;2023-02-18T05:52:05;99839.31;;;16.30;62.43
24390;BME280;12510;56.468;-3.004;2023-02-18T05:54:33;99847.44;;;16.00;63.09
24390;BME280;12510;56.468;-3.004;2023-02-18T05:57:00;99861.13;;;16.25;63.01
24390;BME280;12510;56.468;-3.004;2023-02-18T05:59:26;99880.31;;;15.99;64.93
24390;BME280;12510;56.468;-3.004;2023-02-18T06:01:53;99884.03;;;16.55;63.23
24390;BME280;12510;56.468;-3.004;2023-02-18T06:04:19;99879.28;;;17.69;58.82
24390;BME280;12510;56.468;-3.004;2023-02-18T06:06:46;99884.53;;;17.42;58.42
24390;BME280;12510;56.468;-3.004;2023-02-18T06:09:12;99882.88;;;16.07;58.51
24390;BME280;12510;56.468;-3.004;2023-02-18T06:11:39;99884.97;;;17.52;58.55
24390;BME280;12510;56.468;-3.004;2023-02-18T06:14:05;99884.50;;;17.35;57.09
24390;BME280;12510;56.468;-3.004;2023-02-18T06:16:32;99890.28;;;17.46;55.46
24390;BME280;12510;56.468;-3.004;2023-02-18T06:18:58;99887.34;;;18.56;55.53
24390;BME280;12510;56.468;-3.004;2023-02-18T06:21:25;99893.88;;;17.24;57.02
24390;BME280;12510;56.468;-3.004;2023-02-18T06:23:52;99926.72;;;13.46;72.45
24390;BME280;12510;56.468;-3.004;2023-02-18T06:26:18;99903.88;;;16.87;60.59
24390;BME280;12510;56.468;-3.004;2023-02-18T06:28:45;99926.78;;;14.39;68.85
24390;BME280;12510;56.468;-3.004;2023-02-18T06:31:11;99930.56;;;14.21;73.06
24390;BME280;12510;56.468;-3.004;2023-02-18T06:33:38;99934.44;;;14.11;74.63
24390;BME280;12510;56.468;-3.004;2023-02-18T06:36:07;99935.31;;;14.03;75.83
24390;BME280;12510;56.468;-3.004;2023-02-18T06:38:34;99941.03;;;14.76;72.82
24390;BME280;12510;56.468;-3.004;2023-02-18T06:41:01;99939.13;;;14.70;72.60
24390;BME280;12510;56.468;-3.004;2023-02-18T06:43:28;99936.88;;;15.12;68.40
24390;BME280;12510;56.468;-3.004;2023-02-18T06:45:55;99948.38;;;15.04;66.89
24390;BME280;12510;56.468;-3.004;2023-02-18T06:48:22;99953.50;;;15.50;69.67
24390;BME280;12510;56.468;-3.004;2023-02-18T06:50:48;99965.66;;;15.45;72.00
24390;BME280;12510;56.468;-3.004;2023-02-18T06:53:15;99960.97;;;16.63;67.14
24390;BME280;12510;56.468;-3.004;2023-02-18T06:55:44;99962.75;;;17.48;60.68
24390;BME280;12510;56.468;-3.004;2023-02-18T06:58:11;99956.06;;;18.47;56.74
24390;BME280;12510;56.468;-3.004;2023-02-18T07:00:38;99962.22;;;18.48;55.99
24390;BME280;12510;56.468;-3.004;2023-02-18T07:03:05;99966.50;;;18.29;56.66
24390;BME280;12510;56.468;-3.004;2023-02-18T07:05:32;99968.56;;;18.47;55.11
24390;BME280;12510;56.468;-3.004;2023-02-18T07:07:59;99966.59;;;19.48;53.31
24390;BME280;12510;56.468;-3.004;2023-02-18T07:10:25;99973.97;;;19.98;50.92
24390;BME280;12510;56.468;-3.004;2023-02-18T07:12:52;99979.78;;;19.36;52.05
24390;BME280;12510;56.468;-3.004;2023-02-18T07:15:18;99996.91;;;17.09;57.24
24390;BME280;12510;56.468;-3.004;2023-02-18T07:17:50;99995.44;;;19.12;53.16
24390;BME280;12510;56.468;-3.004;2023-02-18T07:20:17;99991.16;;;19.63;52.38
24390;BME280;12510;56.468;-3.004;2023-02-18T07:22:43;100006.25;;;18.23;53.39
24390;BME280;12510;56.468;-3.004;2023-02-18T07:25:10;100004.44;;;18.77;53.50
24390;BME280;12510;56.468;-3.004;2023-02-18T07:27:36;100005.34;;;19.64;51.08
24390;BME280;12510;56.468;-3.004;2023-02-18T07:30:03;100023.81;;;19.72;52.31
24390;BME280;12510;56.468;-3.004;2023-02-18T07:32:30;100026.09;;;19.62;51.27
24390;BME280;12510;56.468;-3.004;2023-02-18T07:34:56;100024.16;;;19.03;50.10
24390;BME280;12510;56.468;-3.004;2023-02-18T07:37:23;100037.34;;;17.26;56.16
24390;BME280;12510;56.468;-3.004;2023-02-18T07:39:49;100023.44;;;20.46;49.53
24390;BME280;12510;56.468;-3.004;2023-02-18T07:42:15;100020.28;;;20.55;48.99
24390;BME280;12510;56.468;-3.004;2023-02-18T07:44:43;100045.59;;;17.73;55.68
24390;BME280;12510;56.468;-3.004;2023-02-18T07:47:13;100066.63;;;17.26;58.21
24390;BME280;12510;56.468;-3.004;2023-02-18T07:49:40;100082.22;;;17.99;57.68
24390;BME280;12510;56.468;-3.004;2023-02-18T07:52:07;100072.59;;;19.14;53.88
24390;BME280;12510;56.468;-3.004;2023-02-18T07:54:34;100085.03;;;17.91;56.30
24390;BME280;12510;56.468;-3.004;2023-02-18T07:57:00;100088.97;;;17.03;59.18
24390;BME280;12510;56.468;-3.004;2023-02-18T07:59:26;100083.59;;;16.75;59.87
24390;BME280;12510;56.468;-3.004;2023-02-18T08:01:53;100076.50;;;18.98;54.36
24390;BME280;12510;56.468;-3.004;2023-02-18T08:04:19;100092.06;;;19.68;51.20
24390;BME280;12510;56.468;-3.004;2023-02-18T08:06:47;100096.78;;;19.52;51.97
24390;BME280;12510;56.468;-3.004;2023-02-18T08:09:16;100088.63;;;19.27;51.33
24390;BME280;12510;56.468;-3.004;2023-02-18T08:11:42;100101.19;;;20.05;49.32
24390;BME280;12510;56.468;-3.004;2023-02-18T08:14:09;100114.91;;;20.16;50.30
24390;BME280;12510;56.468;-3.004;2023-02-18T08:16:35;100112.38;;;20.34;49.71
24390;BME280;12510;56.468;-3.004;2023-02-18T08:19:02;100116.09;;;18.87;51.52
24390;BME280;12510;56.468;-3.004;2023-02-18T08:21:29;100128.59;;;18.12;55.10
24390;BME280;12510;56.468;-3.004;2023-02-18T08:23:57;100135.16;;;18.16;56.60
24390;BME280;12510;56.468;-3.004;2023-02-18T08:26:24;100139.13;;;19.22;55.55
24390;BME280;12510;56.468;-3.004;2023-02-18T08:28:51;100143.03;;;19.26;55.10
24390;BME280;12510;56.468;-3.004;2023-02-18T08:31:22;100159.72;;;17.76;57.92
24390;BME280;12510;56.468;-3.004;2023-02-18T08:33:51;100146.53;;;20.32;52.46
24390;BME280;12510;56.468;-3.004;2023-02-18T08:36:17;100153.38;;;20.60;51.38
24390;BME280;12510;56.468;-3.004;2023-02-18T08:38:44;100169.66;;;18.24;54.72
24390;BME280;12510;56.468;-3.004;2023-02-18T08:41:11;100171.34;;;19.20;56.09
24390;BME280;12510;56.468;-3.004;2023-02-18T08:43:39;100171.53;;;18.92;54.99
24390;BME280;12510;56.468;-3.004;2023-02-18T08:46:06;100184.56;;;17.55;60.54
24390;BME280;12510;56.468;-3.004;2023-02-18T08:48:32;100186.38;;;17.26;62.30
24390;BME280;12510;56.468;-3.004;2023-02-18T08:50:59;100190.72;;;17.55;59.98
24390;BME280;12510;56.468;-3.004;2023-02-18T08:53:25;100208.28;;;19.10;57.36
24390;BME280;12510;56.468;-3.004;2023-02-18T08:55:52;100220.69;;;17.64;61.26
24390;BME280;12510;56.468;-3.004;2023-02-18T08:58:18;100229.50;;;18.70;62.66
24390;BME280;12510;56.468;-3.004;2023-02-18T09:00:45;100231.41;;;17.99;61.38
24390;BME280;12510;56.468;-3.004;2023-02-18T09:03:12;100233.19;;;17.92;60.83
24390;BME280;12510;56.468;-3.004;2023-02-18T09:05:39;100233.09;;;18.90;57.87
24390;BME280;12510;56.468;-3.004;2023-02-18T09:08:06;100246.25;;;18.99;58.00
24390;BME280;12510;56.468;-3.004;2023-02-18T09:10:33;100253.41;;;18.50;60.51
24390;BME280;12510;56.468;-3.004;2023-02-18T09:12:59;100253.31;;;18.30;60.52
24390;BME280;12510;56.468;-3.004;2023-02-18T09:15:26;100248.97;;;20.26;54.03
24390;BME280;12510;56.468;-3.004;2023-02-18T09:17:52;100256.22;;;19.65;54.14
24390;BME280;12510;56.468;-3.004;2023-02-18T09:20:19;100272.50;;;20.63;52.73
24390;BME280;12510;56.468;-3.004;2023-02-18T09:22:45;100274.91;;;19.79;53.78
24390;BME280;12510;56.468;-3.004;2023-02-18T09:25:12;100266.47;;;19.68;54.42
24390;BME280;12510;56.468;-3.004;2023-02-18T09:27:38;100276.97;;;19.70;53.79
24390;BME280;12510;56.468;-3.004;2023-02-18T09:30:05;100280.91;;;19.87;53.36
24390;BME280;12510;56.468;-3.004;2023-02-18T09:32:31;100275.44;;;20.48;54.22
24390;BME280;12510;56.468;-3.004;2023-02-18T09:34:58;100282.84;;;20.52;53.66
24390;BME280;12510;56.468;-3.004;2023-02-18T09:37:24;100271.91;;;20.74;50.95
24390;BME280;12510;56.468;-3.004;2023-02-18T09:39:51;100268.81;;;20.70;51.47
24390;BME280;12510;56.468;-3.004;2023-02-18T09:42:20;100276.50;;;20.40;52.66
24390;BME280;12510;56.468;-3.004;2023-02-18T09:44:55;100287.28;;;20.79;52.20
24390;BME280;12510;56.468;-3.004;2023-02-18T09:47:40;100297.00;;;20.73;52.89
24390;BME280;12510;56.468;-3.004;2023-02-18T09:50:19;100289.09;;;20.91;49.53
24390;BME280;12510;56.468;-3.004;2023-02-18T09:52:47;100307.44;;;20.88;51.50
24390;BME280;12510;56.468;-3.004;2023-02-18T09:55:18;100312.84;;;20.68;53.43
24390;BME280;12510;56.468;-3.004;2023-02-18T09:57:51;100305.56;;;19.89;53.43
24390;BME280;12510;56.468;-3.004;2023-02-18T10:00:23;100306.31;;;20.43;53.06
24390;BME280;12510;56.468;-3.004;2023-02-18T10:02:56;100310.13;;;21.26;51.09
24390;BME280;12510;56.468;-3.004;2023-02-18T10:05:25;100308.41;;;20.28;49.75
24390;BME280;12510;56.468;-3.004;2023-02-18T10:07:57;100313.69;;;20.75;51.50
24390;BME280;12510;56.468;-3.004;2023-02-18T10:12:51;100334.28;;;19.74;53.94
24390;BME280;12510;56.468;-3.004;2023-02-18T10:15:27;100352.69;;;18.87;58.22
24390;BME280;12510;56.468;-3.004;2023-02-18T10:17:56;100348.81;;;19.45;57.66
24390;BME280;12510;56.468;-3.004;2023-02-18T10:20:27;100337.97;;;21.19;52.39
24390;BME280;12510;56.468;-3.004;2023-02-18T10:22:57;100343.72;;;21.22;52.25
24390;BME280;12510;56.468;-3.004;2023-02-18T10:25:27;100340.50;;;20.41;51.79
24390;BME280;12510;56.468;-3.004;2023-02-18T10:27:56;100338.19;;;20.52;52.38
24390;BME280;12510;56.468;-3.004;2023-02-18T10:30:32;100335.75;;;20.37;54.81
24390;BME280;12510;56.468;-3.004;2023-02-18T10:37:22;100341.63;;;20.86;51.18
24390;BME280;12510;56.468;-3.004;2023-02-18T10:39:59;100343.53;;;20.52;52.69
24390;BME280;12510;56.468;-3.004;2023-02-18T10:49:15;100343.22;;;20.93;49.56
24390;BME280;12510;56.468;-3.004;2023-02-18T10:51:51;100356.69;;;19.73;54.16
24390;BME280;12510;56.468;-3.004;2023-02-18T10:54:24;100355.59;;;19.40;53.88
24390;BME280;12510;56.468;-3.004;2023-02-18T10:56:53;100353.41;;;19.77;54.12
24390;BME280;12510;56.468;-3.004;2023-02-18T10:59:32;100351.94;;;19.62;53.68
24390;BME280;12510;56.468;-3.004;2023-02-18T11:02:02;100358.78;;;18.67;54.63
24390;BME280;12510;56.468;-3.004;2023-02-18T11:04:38;100347.00;;;21.63;52.34
24390;BME280;12510;56.468;-3.004;2023-02-18T11:07:14;100345.78;;;21.20;50.14
24390;BME280;12510;56.468;-3.004;2023-02-18T11:09:49;100349.13;;;20.03;53.71
24390;BME280;12510;56.468;-3.004;2023-02-18T11:12:27;100354.69;;;20.22;53.48
24390;BME280;12510;56.468;-3.004;2023-02-18T11:17:46;100352.22;;;22.77;49.28
24390;BME280;12510;56.468;-3.004;2023-02-18T11:20:34;100342.91;;;22.99;45.63
24390;BME280;12510;56.468;-3.004;2023-02-18T11:25:36;100364.63;;;21.00;51.66
24390;BME280;12510;56.468;-3.004;2023-02-18T11:28:31;100360.72;;;21.41;49.62
24390;BME280;12510;56.468;-3.004;2023-02-18T11:31:00;100361.81;;;19.54;53.01
24390;BME280;12510;56.468;-3.004;2023-02-18T11:33:38;100368.88;;;20.22;52.72
24390;BME280;12510;56.468;-3.004;2023-02-18T11:36:27;100374.84;;;18.81;55.59
24390;BME280;12510;56.468;-3.004;2023-02-18T11:38:59;100368.47;;;20.32;55.06
24390;BME280;12510;56.468;-3.004;2023-02-18T11:41:36;100371.56;;;19.27;55.44
24390;BME280;12510;56.468;-3.004;2023-02-18T11:44:05;100373.34;;;18.71;56.83
24390;BME280;12510;56.468;-3.004;2023-02-18T11:46:33;100366.50;;;19.46;56.60
24390;BME280;12510;56.468;-3.004;2023-02-18T11:49:20;100366.91;;;19.36;56.49
24390;BME280;12510;56.468;-3.004;2023-02-18T11:51:48;100355.66;;;20.74;53.88
24390;BME280;12510;56.468;-3.004;2023-02-18T11:54:30;100361.28;;;20.13;53.33
24390;BME280;12510;56.468;-3.004;2023-02-18T11:59:26;100376.84;;;19.07;55.96
24390;BME280;12510;56.468;-3.004;2023-02-18T12:04:40;100378.72;;;20.55;54.10
24390;BME280;12510;56.468;-3.004;2023-02-18T12:07:19;100380.41;;;20.16;54.41
24390;BME280;12510;56.468;-3.004;2023-02-18T12:10:13;100375.88;;;20.03;52.09
24390;BME280;12510;56.468;-3.004;2023-02-18T12:12:44;100390.88;;;20.11;53.57
24390;BME280;12510;56.468;-3.004;2023-02-18T12:15:16;100385.97;;;20.28;54.62
24390;BME280;12510;56.468;-3.004;2023-02-18T12:20:48;100388.31;;;21.03;51.63
24390;BME280;12510;56.468;-3.004;2023-02-18T12:31:57;100373.78;;;20.72;50.25
24390;BME280;12510;56.468;-3.004;2023-02-18T12:34:43;100372.03;;;22.07;48.65
24390;BME280;12510;56.468;-3.004;2023-02-18T12:37:43;100363.97;;;22.39;46.98
24390;BME280;12510;56.468;-3.004;2023-02-18T12:43:26;100380.09;;;20.98;51.63
24390;BME280;12510;56.468;-3.004;2023-02-18T12:57:15;100382.84;;;20.38;54.67
24390;BME280;12510;56.468;-3.004;2023-02-18T13:05:42;100387.06;;;21.58;51.44
24390;BME280;12510;56.468;-3.004;2023-02-18T13:08:46;100382.34;;;20.95;53.17
24390;BME280;12510;56.468;-3.004;2023-02-18T13:16:42;100374.69;;;21.57;51.57
24390;BME280;12510;56.468;-3.004;2023-02-18T13:19:28;100376.88;;;20.09;54.02
24390;BME280;12510;56.468;-3.004;2023-02-18T13:22:07;100379.78;;;20.27;53.42
24390;BME280;12510;56.468;-3.004;2023-02-18T13:24:42;100383.63;;;18.74;57.90
24390;BME280;12510;56.468;-3.004;2023-02-18T13:32:50;100339.69;;;22.90;46.80
24390;BME280;12510;56.468;-3.004;2023-02-18T13:35:43;100339.84;;;22.58;45.91
24390;BME280;12510;56.468;-3.004;2023-02-18T13:40:59;100336.03;;;22.47;46.25
24390;BME280;12510;56.468;-3.004;2023-02-18T13:46:14;100333.28;;;22.29;48.12
24390;BME280;12510;56.468;-3.004;2023-02-18T13:51:45;100345.13;;;20.86;50.56
24390;BME280;12510;56.468;-3.004;2023-02-18T13:54:17;100336.63;;;22.68;48.35
24390;BME280;12510;56.468;-3.004;2023-02-18T13:57:00;100350.25;;;20.88;52.39
24390;BME280;12510;56.468;-3.004;2023-02-18T13:59:43;100361.81;;;20.88;53.85
24390;BME280;12510;56.468;-3.004;2023-02-18T14:25:40;100359.50;;;21.76;53.94
24390;BME280;12510;56.468;-3.004;2023-02-18T14:31:20;100359.75;;;20.77;55.54
24390;BME280;12510;56.468;-3.004;2023-02-18T14:37:02;100359.34;;;19.59;57.24
24390;BME280;12510;56.468;-3.004;2023-02-18T14:42:47;100353.38;;;19.57;59.01
24390;BME280;12510;56.468;-3.004;2023-02-18T14:48:14;100346.38;;;21.29;54.70
24390;BME280;12510;56.468;-3.004;2023-02-18T14:50:48;100362.13;;;21.51;53.25
24390;BME280;12510;56.468;-3.004;2023-02-18T14:53:22;100371.94;;;19.11;57.99
24390;BME280;12510;56.468;-3.004;2023-02-18T14:55:53;100363.91;;;18.69;60.02
24390;BME280;12510;56.468;-3.004;2023-02-18T14:58:30;100375.00;;;17.72;63.88
24390;BME280;12510;56.468;-3.004;2023-02-18T15:01:16;100375.94;;;17.65;68.39
24390;BME280;12510;56.468;-3.004;2023-02-18T15:03:46;100381.47;;;18.06;67.98
24390;BME280;12510;56.468;-3.004;2023-02-18T15:06:31;100375.50;;;18.26;66.04
24390;BME280;12510;56.468;-3.004;2023-02-18T15:09:11;100377.06;;;17.55;66.56
24390;BME280;12510;56.468;-3.004;2023-02-18T15:11:42;100391.31;;;16.96;70.96
24390;BME280;12510;56.468;-3.004;2023-02-18T15:14:23;100389.84;;;17.45;69.60
24390;BME280;12510;56.468;-3.004;2023-02-18T15:16:51;100383.19;;;17.34;69.99
24390;BME280;12510;56.468;-3.004;2023-02-18T15:19:21;100383.94;;;17.28;70.53
24390;BME280;12510;56.468;-3.004;2023-02-18T15:21:52;100371.97;;;18.47;67.13
24390;BME280;12510;56.468;-3.004;2023-02-18T15:26:53;100385.41;;;17.89;68.55
24390;BME280;12510;56.468;-3.004;2023-02-18T15:29:24;100383.69;;;17.08;71.86
24390;BME280;12510;56.468;-3.004;2023-02-18T15:31:53;100379.47;;;16.99;73.19
24390;BME280;12510;56.468;-3.004;2023-02-18T15:34:37;100369.44;;;17.16;72.26
24390;BME280;12510;56.468;-3.004;2023-02-18T15:37:06;100360.88;;;17.35;72.94